Time;durP1;ratioP1;P1;durP2;ratioP2;P2;SDS_P1;SDS_P2;PMS_P1;PMS_P2;Temp;Humidity;BMP_temperature;BMP_pressure;BME280_temperature;BME280_humidity;BME280_pressure;Samples;Min_cycle;Max_cycle;Signal;HPM_P1;HPM_P2
2021/06/13 00:01:14;;;;;;;5.10;4.28;;;19.00;72.80;;;;;;6225093;28;20492;-79
2021/06/13 00:04:15;;;;;;;5.43;4.70;;;18.90;73.10;;;;;;6225822;28;20487;-80
2021/06/13 00:07:18;;;;;;;6.18;5.43;;;18.80;75.00;;;;;;6225971;28;20069;-80
2021/06/13 00:10:20;;;;;;;6.20;5.60;;;18.70;77.20;;;;;;6225814;28;20046;-81
2021/06/13 00:13:21;;;;;;;11.82;6.38;;;18.60;78.30;;;;;;6226015;28;20731;-79
2021/06/13 00:16:23;;;;;;;9.50;4.78;;;18.40;79.00;;;;;;6225853;28;20097;-80
2021/06/13 00:19:24;;;;;;;8.30;4.90;;;18.20;79.90;;;;;;6221102;28;20125;-80
2021/06/13 00:22:27;;;;;;;5.13;4.65;;;18.10;80.50;;;;;;6225940;28;20522;-79
2021/06/13 00:25:28;;;;;;;7.45;5.22;;;17.90;81.20;;;;;;6226378;28;20061;-80
2021/06/13 00:28:30;;;;;;;9.63;5.18;;;17.80;81.60;;;;;;6228023;28;20133;-79
2021/06/13 00:31:31;;;;;;;9.70;5.47;;;17.70;82.30;;;;;;6231008;28;20427;-78
2021/06/13 00:34:33;;;;;;;8.77;7.22;;;17.60;82.90;;;;;;6231240;28;20081;-78
2021/06/13 00:37:35;;;;;;;6.95;5.28;;;17.50;83.50;;;;;;6231277;28;20503;-80
2021/06/13 00:40:37;;;;;;;9.30;5.78;;;17.50;84.50;;;;;;6227902;28;20104;-80
2021/06/13 00:43:38;;;;;;;6.20;5.60;;;17.30;84.90;;;;;;6227979;28;20091;-80
2021/06/13 00:46:40;;;;;;;6.18;5.55;;;17.20;85.70;;;;;;6230571;28;20073;-80
2021/06/13 00:49:41;;;;;;;6.63;5.97;;;17.00;86.50;;;;;;6229829;28;20061;-81
2021/06/13 00:52:44;;;;;;;5.88;5.32;;;16.90;87.20;;;;;;6229983;28;20551;-81
2021/06/13 00:55:46;;;;;;;11.27;7.07;;;16.70;87.40;;;;;;6229322;28;20124;-80
2021/06/13 00:58:48;;;;;;;8.10;5.18;;;16.70;88.10;;;;;;6225526;28;20543;-78
2021/06/13 01:01:50;;;;;;;6.22;5.50;;;16.60;88.40;;;;;;6230282;28;20084;-79
2021/06/13 01:04:51;;;;;;;7.40;6.70;;;16.50;88.70;;;;;;6232523;28;20081;-79
2021/06/13 01:08:06;;;;;;;7.93;5.80;;;16.40;89.40;;;;;;6233460;28;20057;-79
2021/06/13 01:11:19;;;;;;;7.50;6.30;;;16.40;89.60;;;;;;6235104;28;20109;-79
2021/06/13 01:14:27;;;;;;;8.38;6.63;;;16.30;90.10;;;;;;6235750;28;20539;-79
2021/06/13 01:17:29;;;;;;;;;;;16.20;90.20;;;;;;6235917;28;20066;-78
2021/06/13 01:20:33;;;;;;;9.93;6.15;;;16.20;90.30;;;;;;6235788;28;20001;-79
2021/06/13 01:23:51;;;;;;;7.90;6.30;;;16.00;90.30;;;;;;6235281;28;20116;-78
2021/06/13 01:27:26;;;;;;;6.72;6.13;;;16.00;90.60;;;;;;6236267;28;20046;-79
2021/06/13 01:30:31;;;;;;;7.53;6.78;;;15.80;91.00;;;;;;6236281;28;20085;-79
2021/06/13 01:33:34;;;;;;;6.82;6.13;;;15.70;91.10;;;;;;6236578;28;20042;-79
2021/06/13 01:36:37;;;;;;;7.20;6.50;;;15.60;91.40;;;;;;6238068;28;20042;-79
2021/06/13 01:39:40;;;;;;;14.65;6.78;;;15.60;91.60;;;;;;6257767;28;20037;-77
2021/06/13 01:42:47;;;;;;;8.68;7.88;;;15.50;91.70;;;;;;6258135;28;20081;-78
2021/06/13 01:45:53;;;;;;;7.32;6.72;;;15.50;91.90;;;;;;6257571;28;20034;-77
2021/06/13 01:48:55;;;;;;;9.52;8.50;;;15.40;92.20;;;;;;6257210;28;20049;-78
2021/06/13 01:51:56;;;;;;;7.40;5.97;;;15.20;92.40;;;;;;6257248;28;20060;-77
2021/06/13 01:54:58;;;;;;;8.88;6.38;;;15.20;92.70;;;;;;6256856;28;20058;-78
2021/06/13 01:58:01;;;;;;;9.00;7.47;;;15.20;92.80;;;;;;6257535;28;20034;-77
2021/06/13 02:01:06;;;;;;;8.27;6.70;;;15.20;93.10;;;;;;6256331;28;20073;-76
2021/06/13 02:04:09;;;;;;;10.68;6.85;;;15.10;93.30;;;;;;6255881;28;20045;-77
2021/06/13 02:07:11;;;;;;;8.50;7.70;;;15.10;93.30;;;;;;6254429;28;20041;-77
2021/06/13 02:10:17;;;;;;;8.52;7.72;;;15.00;93.30;;;;;;6226857;28;20129;-78
2021/06/13 02:13:19;;;;;;;10.15;6.80;;;15.00;93.30;;;;;;6226019;28;20078;-77
2021/06/13 02:16:22;;;;;;;9.25;6.20;;;14.90;93.60;;;;;;6226687;28;20603;-77
2021/06/13 02:19:25;;;;;;;9.63;6.78;;;14.90;94.00;;;;;;6227138;28;20468;-78
2021/06/13 02:22:27;;;;;;;6.88;6.22;;;15.00;94.20;;;;;;6227529;28;20137;-77
2021/06/13 02:25:28;;;;;;;16.15;7.05;;;15.20;94.40;;;;;;6226954;28;20121;-77
2021/06/13 02:28:36;;;;;;;8.80;5.30;;;15.40;93.80;;;;;;6226175;28;20074;-78
2021/06/13 02:31:41;;;;;;;12.75;7.55;;;15.40;93.70;;;;;;6231386;28;20535;-78
2021/06/13 02:34:45;;;;;;;6.78;5.57;;;15.40;93.70;;;;;;6233301;28;20053;-78
2021/06/13 02:37:47;;;;;;;6.22;5.40;;;15.40;93.40;;;;;;6229098;28;20082;-78
2021/06/13 02:40:50;;;;;;;8.52;6.97;;;15.30;93.40;;;;;;6228514;28;20045;-78
2021/06/13 02:43:52;;;;;;;13.95;6.07;;;15.30;93.60;;;;;;6226420;28;20512;-78
2021/06/13 02:46:55;;;;;;;7.45;6.28;;;15.20;93.50;;;;;;6226494;28;20144;-77
2021/06/13 02:49:56;;;;;;;10.88;5.78;;;15.10;93.70;;;;;;6226064;28;20504;-79
2021/06/13 02:53:05;;;;;;;12.15;6.28;;;15.10;93.70;;;;;;6225374;28;20125;-78
2021/06/13 02:56:14;;;;;;;9.13;5.90;;;15.10;93.70;;;;;;6226584;28;20066;-79
2021/06/13 02:59:18;;;;;;;;;;;14.90;93.70;;;;;;6228504;28;20171;-79
2021/06/13 03:02:25;;;;;;;7.68;5.75;;;14.90;93.80;;;;;;6228630;28;20004;-79
2021/06/13 03:05:28;;;;;;;14.13;6.57;;;14.70;94.30;;;;;;6227680;28;20062;-80
2021/06/13 03:08:30;;;;;;;6.80;5.40;;;14.70;94.70;;;;;;6228340;28;20069;-79
2021/06/13 03:11:32;;;;;;;7.40;6.07;;;14.60;94.80;;;;;;6227787;28;20066;-79
2021/06/13 03:14:35;;;;;;;13.80;6.25;;;14.60;95.00;;;;;;6228315;28;20060;-79
2021/06/13 03:17:40;;;;;;;6.38;5.70;;;14.70;94.70;;;;;;6227788;28;20042;-80
2021/06/13 03:20:43;;;;;;;5.70;5.20;;;14.70;94.50;;;;;;6228201;28;20555;-79
2021/06/13 03:23:47;;;;;;;6.45;5.68;;;14.70;95.10;;;;;;6227913;28;20058;-80
2021/06/13 03:26:51;;;;;;;7.82;5.85;;;14.70;94.70;;;;;;6230342;28;20080;-78
2021/06/13 03:29:54;;;;;;;7.95;6.13;;;14.70;94.80;;;;;;6226983;28;20089;-77
2021/06/13 03:32:58;;;;;;;8.50;5.30;;;14.60;95.10;;;;;;6227162;28;20134;-79
2021/06/13 03:36:01;;;;;;;10.30;5.57;;;14.70;94.90;;;;;;6226706;28;20574;-79
2021/06/13 03:39:03;;;;;;;5.15;4.65;;;14.80;94.80;;;;;;6226782;28;20117;-79
2021/06/13 03:42:06;;;;;;;10.32;5.35;;;14.80;94.70;;;;;;6227335;28;20056;-78
2021/06/13 03:45:10;;;;;;;7.82;5.10;;;14.90;94.30;;;;;;6226679;28;20083;-79
2021/06/13 03:48:15;;;;;;;6.65;5.05;;;14.90;94.50;;;;;;6227108;28;20100;-80
2021/06/13 03:51:18;;;;;;;7.80;4.88;;;15.00;94.30;;;;;;6227011;28;20795;-78
2021/06/13 03:54:21;;;;;;;5.97;5.38;;;15.00;94.20;;;;;;6227240;28;20118;-78
2021/06/13 03:57:23;;;;;;;4.80;4.38;;;15.00;94.30;;;;;;6227942;28;20049;-78
2021/06/13 04:00:29;;;;;;;5.85;5.35;;;15.20;94.10;;;;;;6227659;28;20169;-78
2021/06/13 04:03:33;;;;;;;7.90;4.85;;;15.30;93.70;;;;;;6226731;28;20515;-79
2021/06/13 04:06:35;;;;;;;5.55;4.63;;;15.40;93.50;;;;;;6227284;28;20125;-78
2021/06/13 04:09:39;;;;;;;6.20;4.88;;;15.40;93.50;;;;;;6225994;28;20076;-79
2021/06/13 04:12:41;;;;;;;5.32;4.82;;;15.40;93.60;;;;;;6226828;28;20049;-79
2021/06/13 04:15:44;;;;;;;6.40;5.82;;;15.50;93.50;;;;;;6225362;28;20050;-79
2021/06/13 04:18:48;;;;;;;6.43;4.93;;;15.50;93.10;;;;;;6227238;28;20046;-79
2021/06/13 04:21:50;;;;;;;7.45;5.22;;;15.70;93.20;;;;;;6227413;28;20423;-78
2021/06/13 04:24:54;;;;;;;7.53;5.50;;;15.90;92.60;;;;;;6226477;28;20579;-79
2021/06/13 04:27:58;;;;;;;7.38;5.03;;;16.00;92.50;;;;;;6226647;28;20129;-77
2021/06/13 04:31:13;;;;;;;6.78;4.95;;;15.90;92.20;;;;;;6226117;28;20492;-78
2021/06/13 04:34:16;;;;;;;5.07;4.57;;;15.80;92.30;;;;;;6228172;28;20061;-79
2021/06/13 04:37:18;;;;;;;6.95;5.30;;;15.80;92.70;;;;;;6226995;28;20084;-78
2021/06/13 04:40:20;;;;;;;7.38;5.05;;;16.00;92.80;;;;;;6226252;28;20042;-78
2021/06/13 04:43:22;;;;;;;6.50;4.88;;;16.10;92.40;;;;;;6226871;28;20627;-79
2021/06/13 04:46:26;;;;;;;5.25;3.95;;;16.30;92.00;;;;;;6226879;28;20195;-78
2021/06/13 04:49:30;;;;;;;9.93;4.60;;;16.50;90.70;;;;;;6226111;28;20441;-77
2021/06/13 04:52:32;;;;;;;6.32;4.18;;;16.70;89.10;;;;;;6226764;28;20125;-78
2021/06/13 04:55:39;;;;;;;8.07;4.05;;;16.90;87.10;;;;;;6225617;28;20177;-77
2021/06/13 04:58:41;;;;;;;7.32;5.05;;;17.10;85.50;;;;;;6227197;28;20180;-79
2021/06/13 05:01:43;;;;;;;9.38;4.20;;;17.40;83.80;;;;;;6226597;28;20058;-77
2021/06/13 05:04:46;;;;;;;10.65;3.38;;;17.60;82.20;;;;;;6225844;28;20136;-79
2021/06/13 05:07:48;;;;;;;7.32;3.20;;;17.70;81.40;;;;;;6226556;28;20045;-79
2021/06/13 05:10:51;;;;;;;4.60;3.17;;;17.90;80.50;;;;;;6225912;28;20579;-79
2021/06/13 05:13:53;;;;;;;9.90;3.85;;;18.10;80.50;;;;;;6226357;28;20046;-78
2021/06/13 05:16:55;;;;;;;9.10;3.40;;;18.30;78.50;;;;;;6230149;28;20096;-78
2021/06/13 05:19:58;;;;;;;6.55;3.72;;;18.50;78.30;;;;;;6229896;28;20073;-79
2021/06/13 05:23:01;;;;;;;4.40;3.47;;;18.70;76.80;;;;;;6230681;28;20157;-78
2021/06/13 05:26:04;;;;;;;6.43;3.22;;;18.90;76.30;;;;;;6222502;28;20050;-79
2021/06/13 05:29:06;;;;;;;3.75;3.05;;;19.10;75.80;;;;;;6228696;28;20057;-77
2021/06/13 05:32:08;;;;;;;12.10;3.85;;;19.20;74.90;;;;;;6230690;28;20046;-77
2021/06/13 05:35:12;;;;;;;9.68;3.97;;;19.40;74.00;;;;;;6230306;28;20117;-78
2021/06/13 05:38:14;;;;;;;8.35;3.20;;;19.60;73.80;;;;;;6230651;28;20381;-79
2021/06/13 05:41:16;;;;;;;7.20;3.38;;;19.80;71.60;;;;;;6230217;28;20503;-79
2021/06/13 05:44:18;;;;;;;4.72;3.38;;;20.10;73.60;;;;;;6230231;28;20069;-79
2021/06/13 05:47:19;;;;;;;4.10;2.67;;;20.20;70.10;;;;;;6230205;28;20102;-77
2021/06/13 05:50:23;;;;;;;7.18;3.67;;;20.20;68.60;;;;;;6230057;28;20110;-79
2021/06/13 05:53:25;;;;;;;5.88;2.92;;;20.10;67.20;;;;;;6229962;28;20507;-78
2021/06/13 05:56:27;;;;;;;8.13;2.97;;;20.10;68.20;;;;;;6229707;28;20049;-78
2021/06/13 05:59:29;;;;;;;7.40;3.72;;;20.20;67.70;;;;;;6229550;28;20045;-79
2021/06/13 06:02:31;;;;;;;12.30;3.55;;;20.40;67.10;;;;;;6230027;28;20049;-79
2021/06/13 06:05:35;;;;;;;7.47;4.10;;;20.70;64.60;;;;;;6219209;28;20556;-79
2021/06/13 06:08:37;;;;;;;6.22;3.30;;;21.80;62.60;;;;;;6229918;28;20081;-78
2021/06/13 06:11:41;;;;;;;7.30;5.03;;;22.90;59.70;;;;;;6231080;28;20571;-78
2021/06/13 06:14:45;;;;;;;7.55;3.08;;;23.60;56.80;;;;;;6230555;28;20050;-79
2021/06/13 06:17:48;;;;;;;9.30;3.33;;;24.10;55.20;;;;;;6229383;28;20046;-79
2021/06/13 06:20:51;;;;;;;10.55;3.95;;;24.30;53.60;;;;;;6228210;28;20129;-79
2021/06/13 06:23:54;;;;;;;7.25;2.88;;;24.40;52.80;;;;;;6228408;28;20050;-78
2021/06/13 06:26:55;;;;;;;8.65;3.45;;;24.30;53.20;;;;;;6228900;28;20129;-79
2021/06/13 06:29:57;;;;;;;4.10;2.78;;;24.50;51.80;;;;;;6228958;28;20129;-78
2021/06/13 06:32:59;;;;;;;11.13;4.53;;;24.70;51.80;;;;;;6229002;28;20081;-79
2021/06/13 06:36:02;;;;;;;6.82;3.30;;;24.90;51.30;;;;;;6228555;28;20069;-79
2021/06/13 06:39:05;;;;;;;5.10;3.40;;;24.80;52.30;;;;;;6228053;28;20050;-78
2021/06/13 06:42:07;;;;;;;7.70;3.03;;;25.10;50.60;;;;;;6228934;28;20085;-79
2021/06/13 06:45:11;;;;;;;3.97;2.90;;;24.90;53.70;;;;;;6227901;28;20045;-78
2021/06/13 06:48:13;;;;;;;4.38;3.00;;;24.70;50.00;;;;;;6228519;28;20049;-79
2021/06/13 06:51:16;;;;;;;3.92;2.72;;;24.40;51.90;;;;;;6228015;28;20048;-79
2021/06/13 06:54:18;;;;;;;8.18;3.63;;;24.70;51.90;;;;;;6229086;28;20045;-79
2021/06/13 06:57:19;;;;;;;3.65;2.85;;;24.70;50.90;;;;;;6227834;28;20049;-77
2021/06/13 07:00:21;;;;;;;11.65;4.65;;;24.50;51.50;;;;;;6223727;28;20049;-78
2021/06/13 07:03:23;;;;;;;9.80;3.00;;;23.90;52.40;;;;;;6223526;28;20514;-77
2021/06/13 07:06:26;;;;;;;7.57;2.67;;;23.50;53.40;;;;;;6223508;28;20622;-79
2021/06/13 07:09:28;;;;;;;7.47;2.88;;;23.20;54.60;;;;;;6223815;28;20127;-77
2021/06/13 07:12:30;;;;;;;8.38;3.95;;;23.30;54.60;;;;;;6224108;28;20116;-78
2021/06/13 07:15:32;;;;;;;8.13;3.70;;;23.40;54.80;;;;;;6224349;28;20081;-77
2021/06/13 07:18:36;;;;;;;6.85;4.07;;;23.60;55.40;;;;;;6224359;28;20080;-77
2021/06/13 07:21:40;;;;;;;6.70;3.22;;;23.80;54.40;;;;;;6224194;28;20041;-78
2021/06/13 07:24:42;;;;;;;7.75;3.30;;;23.90;53.90;;;;;;6224464;28;20136;-78
2021/06/13 07:27:44;;;;;;;5.95;2.50;;;24.10;53.20;;;;;;6224822;28;20092;-77
2021/06/13 07:30:45;;;;;;;5.22;3.03;;;24.20;52.80;;;;;;6223108;28;20523;-77
2021/06/13 07:33:47;;;;;;;7.38;2.85;;;24.60;51.40;;;;;;6223693;28;20133;-77
2021/06/13 07:36:50;;;;;;;7.32;2.90;;;24.70;51.30;;;;;;6223692;28;20486;-77
2021/06/13 07:39:52;;;;;;;4.72;3.15;;;25.00;53.40;;;;;;6223982;28;20530;-78
2021/06/13 07:42:54;;;;;;;5.68;2.13;;;25.10;50.00;;;;;;6224036;28;20112;-77
2021/06/13 07:45:56;;;;;;;10.52;2.80;;;25.20;49.80;;;;;;6223841;28;20417;-77
2021/06/13 07:48:58;;;;;;;5.55;2.80;;;25.60;49.40;;;;;;6223508;28;20046;-77
2021/06/13 07:52:01;;;;;;;7.75;2.75;;;25.70;49.30;;;;;;6224246;28;20081;-77
2021/06/13 07:55:06;;;;;;;8.07;3.58;;;25.80;49.30;;;;;;6224866;28;20073;-78
2021/06/13 07:58:10;;;;;;;6.13;2.33;;;26.10;48.50;;;;;;6224846;28;20046;-77
2021/06/13 08:01:12;;;;;;;4.82;3.75;;;26.40;47.30;;;;;;6224860;28;20057;-77
2021/06/13 08:04:15;;;;;;;4.22;2.85;;;26.60;46.40;;;;;;6225264;28;20133;-77
2021/06/13 08:07:18;;;;;;;9.77;2.60;;;26.90;46.50;;;;;;6225266;28;20045;-77
2021/06/13 08:10:20;;;;;;;6.68;3.17;;;27.40;46.00;;;;;;6223143;28;20469;-76
2021/06/13 08:13:22;;;;;;;6.63;2.78;;;27.80;44.50;;;;;;6222047;28;20049;-77
2021/06/13 08:16:24;;;;;;;8.98;3.58;;;28.20;43.80;;;;;;6222032;28;20129;-77
2021/06/13 08:19:26;;;;;;;5.85;3.67;;;28.60;43.10;;;;;;6222043;28;20535;-77
2021/06/13 08:22:30;;;;;;;8.23;3.70;;;29.30;42.70;;;;;;6223404;28;20054;-79
2021/06/13 08:25:32;;;;;;;3.80;2.70;;;30.10;40.80;;;;;;6222410;28;20524;-78
2021/06/13 08:28:34;;;;;;;6.55;3.10;;;30.60;39.70;;;;;;6222379;28;20132;-77
2021/06/13 08:31:36;;;;;;;8.32;2.80;;;31.00;39.10;;;;;;6223187;28;20073;-77
2021/06/13 08:34:37;;;;;;;9.00;3.15;;;31.60;38.60;;;;;;6224234;28;20081;-77
2021/06/13 08:37:41;;;;;;;5.13;3.00;;;32.00;38.00;;;;;;6222949;28;20130;-77
2021/06/13 08:40:43;;;;;;;8.40;3.53;;;32.20;36.60;;;;;;6221818;28;20660;-77
2021/06/13 08:43:46;;;;;;;4.80;3.40;;;32.50;36.40;;;;;;6222055;28;20125;-77
2021/06/13 08:46:48;;;;;;;4.07;2.70;;;32.60;36.10;;;;;;6221862;28;20077;-77
2021/06/13 08:49:50;;;;;;;6.18;3.38;;;32.80;35.70;;;;;;6224855;28;20136;-77
2021/06/13 08:52:54;;;;;;;5.13;2.63;;;33.10;35.10;;;;;;6226642;28;20594;-77
2021/06/13 08:55:56;;;;;;;4.18;3.10;;;33.00;35.60;;;;;;6226577;28;20136;-78
2021/06/13 08:58:58;;;;;;;10.48;3.10;;;33.00;34.90;;;;;;6227335;28;20533;-77
2021/06/13 09:02:01;;;;;;;6.15;4.00;;;33.00;34.20;;;;;;6227916;28;20060;-78
2021/06/13 09:05:03;;;;;;;6.30;2.75;;;33.10;34.30;;;;;;6226256;28;20092;-77
2021/06/13 09:08:10;;;;;;;7.28;3.05;;;33.40;33.90;;;;;;6225788;28;20506;-78
2021/06/13 09:11:25;;;;;;;11.07;3.75;;;33.30;34.20;;;;;;6225799;28;20132;-77
2021/06/13 09:14:28;;;;;;;6.38;3.47;;;33.20;34.40;;;;;;6226538;28;20090;-75
2021/06/13 09:17:30;;;;;;;4.45;3.20;;;33.10;34.10;;;;;;6225701;28;20046;-75
2021/06/13 09:20:32;;;;;;;4.90;3.03;;;33.10;33.40;;;;;;6225794;28;20046;-75
2021/06/13 09:23:38;;;;;;;5.28;2.85;;;32.90;33.60;;;;;;6225872;28;20049;-75
2021/06/13 09:26:40;;;;;;;10.13;7.78;;;33.00;33.50;;;;;;6226478;28;20050;-75
2021/06/13 09:30:00;;;;;;;9.70;5.82;;;33.10;33.60;;;;;;6225342;28;20577;-75
2021/06/13 09:33:04;;;;;;;6.85;2.42;;;33.30;33.70;;;;;;6225491;28;20129;-77
2021/06/13 09:36:07;;;;;;;3.08;2.20;;;33.40;33.70;;;;;;6225019;28;20511;-75
2021/06/13 09:39:14;;;;;;;9.82;2.95;;;33.20;32.80;;;;;;6225738;28;20121;-74
2021/06/13 09:42:15;;;;;;;8.05;2.50;;;33.10;33.50;;;;;;6226013;28;20100;-75
2021/06/13 09:45:18;;;;;;;10.57;3.20;;;33.20;33.70;;;;;;6225140;28;20081;-75
2021/06/13 09:48:21;;;;;;;8.90;3.20;;;33.10;33.00;;;;;;6225010;28;20407;-75
2021/06/13 09:51:25;;;;;;;6.82;1.90;;;33.20;32.90;;;;;;6225284;28;20124;-75
2021/06/13 09:54:29;;;;;;;3.83;2.60;;;32.90;33.20;;;;;;6225343;28;20057;-76
2021/06/13 09:57:30;;;;;;;3.35;2.45;;;32.80;32.70;;;;;;6224680;28;20569;-75
2021/06/13 10:00:33;;;;;;;6.35;2.40;;;32.60;32.30;;;;;;6224150;28;20557;-76
2021/06/13 10:03:37;;;;;;;8.48;2.05;;;32.20;33.40;;;;;;6225635;28;20085;-75
2021/06/13 10:06:38;;;;;;;5.63;2.20;;;31.40;34.60;;;;;;6226564;28;20054;-78
2021/06/13 10:09:45;;;;;;;6.72;2.33;;;30.50;35.40;;;;;;6226660;28;20073;-78
2021/06/13 10:12:56;;;;;;;3.22;1.73;;;29.80;36.50;;;;;;6227288;28;20561;-78
2021/06/13 10:15:58;;;;;;;7.72;2.30;;;29.60;36.70;;;;;;6224996;28;20056;-77
2021/06/13 10:19:03;;;;;;;6.70;2.67;;;29.50;36.30;;;;;;6225015;28;20049;-76
2021/06/13 10:22:05;;;;;;;2.97;2.00;;;29.30;36.90;;;;;;6225642;28;20073;-77
2021/06/13 10:25:10;;;;;;;7.40;2.25;;;29.00;36.90;;;;;;6224420;28;20097;-76
2021/06/13 10:28:12;;;;;;;3.08;1.58;;;28.70;37.60;;;;;;6225320;28;20049;-77
2021/06/13 10:31:15;;;;;;;5.82;1.50;;;28.50;37.40;;;;;;6224787;28;20045;-77
2021/06/13 10:34:18;;;;;;;11.00;3.65;;;28.40;37.40;;;;;;6224698;28;20532;-78
2021/06/13 10:37:20;;;;;;;2.83;2.42;;;28.40;37.40;;;;;;6224333;28;20050;-78
2021/06/13 10:40:23;;;;;;;4.07;2.17;;;28.30;37.30;;;;;;6224158;28;20133;-77
2021/06/13 10:43:28;;;;;;;2.70;1.73;;;28.40;38.10;;;;;;6223822;28;20057;-77
2021/06/13 10:46:32;;;;;;;4.57;2.22;;;28.60;37.80;;;;;;6225254;28;20049;-78
2021/06/13 10:49:36;;;;;;;2.58;1.67;;;28.70;37.00;;;;;;6224254;28;20048;-77
2021/06/13 10:52:38;;;;;;;2.83;1.60;;;28.40;35.70;;;;;;6224315;28;20184;-78
2021/06/13 10:55:52;;;;;;;3.25;1.70;;;28.20;36.00;;;;;;6223723;28;20085;-77
2021/06/13 10:59:00;;;;;;;4.65;1.63;;;28.40;37.00;;;;;;6223733;28;20179;-77
2021/06/13 11:02:09;;;;;;;5.85;2.22;;;28.20;35.40;;;;;;6224578;28;20188;-77
2021/06/13 11:05:11;;;;;;;4.53;1.60;;;28.20;35.00;;;;;;6223525;28;20049;-77
2021/06/13 11:08:14;;;;;;;2.45;1.40;;;28.40;34.20;;;;;;6223604;28;20042;-78
2021/06/13 11:11:35;;;;;;;2.72;1.52;;;28.70;33.60;;;;;;6223533;28;20092;-78
2021/06/13 11:14:36;;;;;;;3.35;1.42;;;29.10;33.00;;;;;;6224819;28;20060;-78
2021/06/13 11:17:55;;;;;;;5.15;1.55;;;29.30;32.10;;;;;;6223407;28;20464;-78
2021/06/13 11:21:05;;;;;;;5.60;2.22;;;29.50;32.70;;;;;;6223624;28;20176;-77
2021/06/13 11:24:07;;;;;;;4.82;2.00;;;29.50;33.10;;;;;;6223409;28;20052;-78
2021/06/13 11:27:10;;;;;;;6.65;2.05;;;29.60;33.80;;;;;;6224711;28;20096;-78
2021/06/13 11:30:29;;;;;;;4.18;1.25;;;29.60;32.00;;;;;;6225992;28;20049;-77
2021/06/13 11:33:37;;;;;;;5.88;2.00;;;29.50;32.40;;;;;;6223828;28;20099;-77
2021/06/13 11:36:42;;;;;;;4.13;1.65;;;29.60;32.60;;;;;;6224637;28;20427;-78
2021/06/13 11:39:54;;;;;;;1.35;1.25;;;29.60;32.40;;;;;;6223551;28;20041;-78
2021/06/13 11:43:12;;;;;;;4.75;1.40;;;29.70;32.40;;;;;;6223810;28;20053;-77
2021/06/13 11:46:14;;;;;;;2.03;1.35;;;29.90;32.80;;;;;;6231000;28;20108;-78
2021/06/13 11:49:18;;;;;;;3.92;1.55;;;29.80;32.00;;;;;;6233281;28;20046;-77
2021/06/13 11:52:21;;;;;;;2.47;1.42;;;29.50;32.60;;;;;;6225577;28;20129;-77
2021/06/13 11:55:52;;;;;;;2.78;1.50;;;29.50;33.10;;;;;;6224431;28;20045;-77
2021/06/13 11:58:59;;;;;;;2.70;1.45;;;29.70;31.90;;;;;;6222687;28;20053;-78
2021/06/13 12:02:04;;;;;;;6.10;1.20;;;29.90;31.00;;;;;;6223393;28;20124;-78
2021/06/13 12:05:08;;;;;;;3.80;1.08;;;30.10;30.60;;;;;;6222393;28;20053;-77
2021/06/13 12:08:10;;;;;;;4.95;1.45;;;30.20;30.70;;;;;;6222549;28;20104;-77
2021/06/13 12:11:30;;;;;;;1.45;1.27;;;30.30;30.00;;;;;;6222233;28;20088;-77
2021/06/13 12:14:35;;;;;;;1.85;1.33;;;30.20;29.80;;;;;;6222614;28;20496;-78
2021/06/13 12:17:38;;;;;;;5.30;1.42;;;30.00;29.60;;;;;;6221994;28;20049;-77
2021/06/13 12:20:40;;;;;;;5.75;1.65;;;30.00;29.60;;;;;;6223022;28;20050;-77
2021/06/13 12:23:51;;;;;;;1.70;0.93;;;30.10;29.90;;;;;;6225249;28;20042;-78
2021/06/13 12:30:17;;;;;;;8.07;1.50;;;30.20;28.80;;;;;;6229061;28;20069;-77
2021/06/13 12:33:21;;;;;;;3.83;3.50;;;30.20;29.30;;;;;;6228676;28;20135;-77
2021/06/13 12:36:23;;;;;;;3.92;1.00;;;30.20;29.50;;;;;;6227467;28;20056;-78
2021/06/13 12:39:27;;;;;;;2.05;1.20;;;30.30;29.40;;;;;;6227382;28;20046;-78
2021/06/13 12:42:29;;;;;;;5.03;1.23;;;30.50;28.70;;;;;;6230041;28;20114;-78
2021/06/13 12:45:33;;;;;;;2.72;1.20;;;30.60;28.00;;;;;;6229387;28;20137;-78
2021/06/13 12:48:35;;;;;;;1.95;1.08;;;30.40;28.50;;;;;;6229918;28;20100;-77
2021/06/13 12:51:41;;;;;;;3.80;1.23;;;30.10;28.20;;;;;;6229861;28;20049;-78
2021/06/13 12:54:45;;;;;;;1.75;1.45;;;30.10;29.00;;;;;;6226259;28;20054;-77
2021/06/13 12:57:49;;;;;;;2.58;1.27;;;30.10;27.90;;;;;;6227527;28;20050;-77
2021/06/13 13:00:53;;;;;;;1.85;0.95;;;29.80;28.90;;;;;;6228671;28;20046;-78
2021/06/13 13:03:54;;;;;;;2.13;1.00;;;29.80;28.50;;;;;;6229916;28;20131;-78
2021/06/13 13:06:56;;;;;;;1.88;0.90;;;29.80;27.40;;;;;;6228345;28;20049;-78
2021/06/13 13:10:03;;;;;;;2.83;1.20;;;29.90;27.70;;;;;;6227989;28;20212;-78
2021/06/13 13:13:06;;;;;;;2.92;1.02;;;30.10;28.30;;;;;;6228070;28;20052;-79
2021/06/13 13:16:22;;;;;;;1.90;0.90;;;30.10;27.80;;;;;;6230185;28;20057;-78
2021/06/13 13:19:30;;;;;;;1.70;0.90;;;30.20;27.00;;;;;;6229623;28;20180;-78
2021/06/13 13:22:42;;;;;;;3.20;1.45;;;30.30;26.50;;;;;;6232028;28;20076;-78
2021/06/13 13:25:46;;;;;;;3.00;1.00;;;30.50;27.70;;;;;;6230626;28;20073;-79
2021/06/13 13:28:51;;;;;;;17.02;2.60;;;30.70;27.80;;;;;;6230180;28;20053;-78
2021/06/13 13:32:00;;;;;;;5.72;2.15;;;30.80;28.00;;;;;;6229339;28;20053;-78
2021/06/13 13:35:02;;;;;;;2.13;1.40;;;31.00;27.60;;;;;;6228947;28;20184;-78
2021/06/13 13:38:06;;;;;;;3.45;1.17;;;30.90;27.40;;;;;;6229280;28;20052;-78
2021/06/13 13:41:10;;;;;;;3.40;1.48;;;30.70;26.00;;;;;;6227509;28;20464;-78
2021/06/13 13:44:14;;;;;;;0.60;0.57;;;30.70;26.30;;;;;;6227714;28;20052;-78
2021/06/13 13:47:19;;;;;;;4.28;0.90;;;30.90;26.30;;;;;;6227652;28;20053;-78
2021/06/13 13:50:36;;;;;;;1.95;1.05;;;30.60;26.10;;;;;;6227378;28;20046;-78
2021/06/13 13:53:46;;;;;;;3.50;1.05;;;30.10;26.50;;;;;;6227466;28;20183;-78
2021/06/13 13:56:50;;;;;;;0.77;0.75;;;29.80;25.50;;;;;;6226878;28;20056;-77
2021/06/13 13:59:53;;;;;;;1.88;0.90;;;29.50;23.90;;;;;;6226722;28;20518;-78
2021/06/13 14:03:00;;;;;;;0.75;0.68;;;29.10;22.80;;;;;;6226565;28;20053;-78
2021/06/13 14:06:03;;;;;;;5.30;1.33;;;29.00;23.60;;;;;;6227201;28;20050;-78
2021/06/13 14:09:07;;;;;;;2.78;1.20;;;29.00;24.70;;;;;;6225601;28;20046;-76
2021/06/13 14:12:10;;;;;;;1.60;1.50;;;29.30;25.70;;;;;;6224256;28;20065;-77
2021/06/13 14:15:13;;;;;;;3.42;1.35;;;29.70;25.90;;;;;;6224689;28;20046;-77
2021/06/13 14:18:16;;;;;;;1.65;1.05;;;29.80;26.70;;;;;;6225038;28;20050;-77
2021/06/13 14:21:18;;;;;;;1.92;1.00;;;29.90;27.40;;;;;;6224500;28;20132;-76
2021/06/13 14:24:20;;;;;;;1.35;1.15;;;30.10;25.80;;;;;;6224886;28;20127;-78
2021/06/13 14:27:22;;;;;;;2.15;1.40;;;30.20;25.70;;;;;;6225221;28;20073;-78
2021/06/13 14:30:24;;;;;;;3.65;1.30;;;30.40;25.70;;;;;;6224201;28;20507;-77
2021/06/13 14:33:27;;;;;;;4.35;2.13;;;30.60;25.50;;;;;;6223800;28;20536;-77
2021/06/13 14:36:29;;;;;;;5.00;1.83;;;30.60;25.70;;;;;;6224021;28;20108;-77
2021/06/13 14:39:31;;;;;;;1.40;1.30;;;30.50;25.60;;;;;;6223671;28;20046;-77
2021/06/13 14:42:34;;;;;;;1.38;0.88;;;30.50;25.70;;;;;;6224656;28;20082;-78
2021/06/13 14:45:36;;;;;;;1.80;1.35;;;30.60;25.70;;;;;;6225406;28;20041;-78
2021/06/13 14:48:39;;;;;;;2.08;1.58;;;30.60;25.50;;;;;;6226925;28;20046;-78
2021/06/13 14:51:41;;;;;;;2.22;1.15;;;30.40;26.80;;;;;;6228284;28;20057;-78
2021/06/13 14:54:43;;;;;;;4.70;2.10;;;30.00;27.90;;;;;;6227398;28;20474;-78
2021/06/13 14:57:45;;;;;;;2.60;1.33;;;30.10;28.10;;;;;;6228015;28;20050;-78
2021/06/13 15:00:50;;;;;;;4.38;1.38;;;29.80;28.40;;;;;;6226707;28;20503;-78
2021/06/13 15:03:58;;;;;;;5.63;3.22;;;29.70;29.20;;;;;;6227527;28;20130;-78
2021/06/13 15:07:00;;;;;;;8.45;3.08;;;29.90;29.00;;;;;;6226896;28;20080;-78
2021/06/13 15:10:02;;;;;;;5.75;1.40;;;29.90;28.30;;;;;;6227054;28;20148;-78
2021/06/13 15:13:04;;;;;;;7.10;2.50;;;29.80;28.30;;;;;;6226993;28;20096;-79
2021/06/13 15:16:07;;;;;;;3.67;1.88;;;29.60;28.40;;;;;;6228077;28;20531;-79
2021/06/13 15:19:10;;;;;;;4.53;1.55;;;29.50;29.00;;;;;;6227461;28;20042;-79
2021/06/13 15:22:12;;;;;;;1.67;1.08;;;29.50;28.40;;;;;;6228265;28;20056;-79
2021/06/13 15:25:15;;;;;;;3.50;1.23;;;29.40;29.40;;;;;;6227495;28;20188;-78
2021/06/13 15:28:17;;;;;;;2.58;1.05;;;29.50;28.90;;;;;;6227382;28;20428;-79
2021/06/13 15:31:19;;;;;;;4.32;1.60;;;29.80;29.00;;;;;;6227234;28;20050;-78
2021/06/13 15:34:22;;;;;;;3.03;1.90;;;29.90;29.30;;;;;;6226713;28;20081;-78
2021/06/13 15:37:25;;;;;;;3.40;1.30;;;30.00;29.30;;;;;;6226954;28;20582;-78
2021/06/13 15:40:28;;;;;;;3.47;1.25;;;30.00;28.50;;;;;;6226358;28;20053;-80
2021/06/13 15:43:30;;;;;;;3.05;1.33;;;29.90;28.70;;;;;;6227408;28;20463;-79
2021/06/13 15:46:32;;;;;;;3.10;1.98;;;29.60;27.80;;;;;;6228630;28;20134;-79
2021/06/13 15:49:35;;;;;;;7.85;3.30;;;29.50;28.40;;;;;;6226287;28;20073;-78
2021/06/13 15:52:37;;;;;;;6.43;4.97;;;29.50;28.00;;;;;;6225889;28;20152;-79
2021/06/13 15:55:42;;;;;;;10.98;4.75;;;29.60;28.00;;;;;;6226552;28;20488;-79
2021/06/13 15:58:44;;;;;;;3.80;1.85;;;29.70;28.00;;;;;;6227069;28;20516;-79